createdAt,value
2023-05-05T00:00:00.726Z,2.40
2023-05-05T00:02:28.977Z,2.47
2023-05-05T00:04:58.447Z,3.03
2023-05-05T00:07:26.532Z,2.88
2023-05-05T00:09:54.797Z,2.88
2023-05-05T00:12:22.883Z,3.50
2023-05-05T00:14:50.955Z,3.67
2023-05-05T00:17:19.075Z,3.35
2023-05-05T00:19:47.187Z,3.17
2023-05-05T00:22:16.665Z,3.50
2023-05-05T00:24:44.741Z,3.08
2023-05-05T00:27:12.806Z,3.75
2023-05-05T00:29:40.975Z,3.00
2023-05-05T00:32:09.059Z,3.20
2023-05-05T00:34:37.131Z,3.10
2023-05-05T00:37:05.168Z,3.08
2023-05-05T00:39:34.778Z,2.97
2023-05-05T00:42:02.854Z,3.60
2023-05-05T00:44:38.061Z,3.25
2023-05-05T00:47:06.882Z,2.60
2023-05-05T00:49:35.629Z,2.80
2023-05-05T00:52:04.805Z,2.97
2023-05-05T00:54:34.411Z,3.13
2023-05-05T00:57:02.884Z,2.95
2023-05-05T00:59:32.519Z,2.97
2023-05-05T01:02:01.012Z,2.90
2023-05-05T01:04:29.095Z,3.03
2023-05-05T01:07:07.568Z,3.22
2023-05-05T01:09:42.956Z,3.13
2023-05-05T01:12:21.256Z,3.10
2023-05-05T01:15:01.596Z,2.90
2023-05-05T01:17:36.222Z,2.92
2023-05-05T01:20:13.213Z,2.60
2023-05-05T01:22:47.804Z,2.60
2023-05-05T01:26:06.804Z,2.30
2023-05-05T01:29:02.142Z,2.28
2023-05-05T01:31:52.107Z,2.40
2023-05-05T01:34:25.686Z,2.22
2023-05-05T01:36:59.464Z,2.78
2023-05-05T01:39:32.561Z,2.70
2023-05-05T01:42:05.449Z,2.72
2023-05-05T01:44:36.153Z,3.00
2023-05-05T01:47:06.411Z,2.88
2023-05-05T01:49:36.345Z,3.20
2023-05-05T01:52:07.113Z,2.75
2023-05-05T01:54:36.333Z,2.70
2023-05-05T01:57:07.210Z,2.97
2023-05-05T01:59:36.977Z,3.17
2023-05-05T02:02:09.545Z,3.03
2023-05-05T02:04:42.202Z,2.95
2023-05-05T02:07:11.292Z,3.10
2023-05-05T02:09:40.453Z,2.65
2023-05-05T02:12:09.452Z,2.70
2023-05-05T02:14:38.080Z,2.60
2023-05-05T02:17:07.872Z,2.90
2023-05-05T02:19:40.057Z,2.78
2023-05-05T02:22:08.477Z,3.00
2023-05-05T02:24:36.803Z,2.38
2023-05-05T02:27:08.463Z,2.63
2023-05-05T02:29:40.472Z,3.42
2023-05-05T02:32:16.973Z,2.83
2023-05-05T02:34:49.073Z,2.70
2023-05-05T02:37:21.027Z,2.92
2023-05-05T02:42:29.835Z,2.72
2023-05-05T02:45:00.837Z,2.70
2023-05-05T02:47:36.375Z,3.53
2023-05-05T02:50:05.345Z,2.70
2023-05-05T02:52:34.135Z,3.05
2023-05-05T02:55:04.090Z,2.70
2023-05-05T02:57:38.761Z,2.60
2023-05-05T03:00:13.736Z,3.20
2023-05-05T03:02:48.013Z,2.60
2023-05-05T03:05:21.861Z,3.17
2023-05-05T03:07:56.669Z,2.45
2023-05-05T03:10:30.061Z,2.83
2023-05-05T03:13:01.294Z,2.63
2023-05-05T03:15:37.045Z,2.97
2023-05-05T03:18:10.600Z,3.20
2023-05-05T03:20:41.067Z,3.00
2023-05-05T03:23:09.348Z,2.58
2023-05-05T03:25:44.224Z,2.83
2023-05-05T03:28:12.519Z,5.18
2023-05-05T03:30:41.096Z,5.20
2023-05-05T03:33:12.555Z,4.30
2023-05-05T03:35:40.600Z,3.92
2023-05-05T03:38:08.653Z,3.45
2023-05-05T03:40:44.233Z,3.22
2023-05-05T03:43:12.980Z,2.90
2023-05-05T03:45:41.056Z,2.50
2023-05-05T03:48:10.572Z,2.90
2023-05-05T03:50:38.707Z,2.80
2023-05-05T03:53:06.912Z,6.25
2023-05-05T03:55:35.268Z,3.85
2023-05-05T03:58:03.329Z,3.63
2023-05-05T04:00:31.667Z,3.13
2023-05-05T04:02:59.896Z,2.30
2023-05-05T04:05:29.414Z,2.50
2023-05-05T04:07:57.889Z,2.50
2023-05-05T04:10:26.018Z,2.30
2023-05-05T04:12:54.093Z,2.38
2023-05-05T04:15:22.517Z,2.60
2023-05-05T04:17:50.690Z,3.30
2023-05-05T04:20:18.960Z,3.58
2023-05-05T04:22:48.673Z,5.72
2023-05-05T04:25:17.604Z,8.00
2023-05-05T04:27:45.823Z,6.82
2023-05-05T04:30:15.005Z,5.80
2023-05-05T04:32:43.099Z,4.45
2023-05-05T04:35:11.344Z,5.18
2023-05-05T04:37:39.462Z,5.28
2023-05-05T04:40:10.619Z,3.92
2023-05-05T04:42:38.731Z,3.47
2023-05-05T04:45:07.844Z,5.10
2023-05-05T04:47:38.749Z,5.82
2023-05-05T04:50:08.183Z,5.57
2023-05-05T04:52:36.725Z,5.75
2023-05-05T04:55:05.096Z,5.20
2023-05-05T04:57:34.544Z,4.50
2023-05-05T05:00:04.904Z,4.40
2023-05-05T05:02:33.146Z,4.40
2023-05-05T05:05:01.313Z,3.85
2023-05-05T05:07:29.348Z,4.45
2023-05-05T05:09:57.404Z,4.00
2023-05-05T05:12:25.501Z,4.80
2023-05-05T05:14:54.948Z,3.75
2023-05-05T05:17:24.088Z,4.88
2023-05-05T05:19:52.145Z,5.07
2023-05-05T05:22:20.188Z,4.15
2023-05-05T05:24:48.265Z,4.32
2023-05-05T05:27:16.339Z,4.15
2023-05-05T05:29:44.608Z,4.20
2023-05-05T05:32:14.195Z,5.95
2023-05-05T05:34:42.342Z,5.53
2023-05-05T05:37:10.449Z,5.13
2023-05-05T05:39:38.808Z,4.72
2023-05-05T05:42:07.805Z,3.30
2023-05-05T05:44:35.914Z,3.63
2023-05-05T05:47:03.966Z,3.33
2023-05-05T05:49:33.393Z,2.90
2023-05-05T05:52:01.515Z,3.30
2023-05-05T05:54:29.592Z,2.85
2023-05-05T05:56:57.620Z,3.03
2023-05-05T05:59:25.695Z,3.60
2023-05-05T06:01:53.797Z,3.47
2023-05-05T06:04:21.859Z,3.70
2023-05-05T06:06:51.625Z,4.10
2023-05-05T06:09:19.687Z,3.65
2023-05-05T06:11:47.722Z,3.33
2023-05-05T06:14:16.644Z,3.28
2023-05-05T06:16:46.095Z,3.40
2023-05-05T06:19:14.160Z,3.30
2023-05-05T06:21:42.551Z,2.75
2023-05-05T06:24:12.036Z,3.15
2023-05-05T06:26:40.147Z,3.10
2023-05-05T06:29:09.572Z,2.45
2023-05-05T06:31:39.215Z,3.17
2023-05-05T06:34:07.308Z,2.78
2023-05-05T06:36:35.742Z,3.28
2023-05-05T06:39:03.937Z,2.50
2023-05-05T06:41:33.356Z,2.78
2023-05-05T06:44:01.554Z,2.65
2023-05-05T06:46:29.643Z,2.30
2023-05-05T06:48:57.691Z,2.63
2023-05-05T06:51:26.498Z,2.65
2023-05-05T06:53:54.569Z,2.60
2023-05-05T06:56:22.648Z,2.50
2023-05-05T06:58:52.049Z,2.75
2023-05-05T07:01:20.377Z,2.75
2023-05-05T07:03:48.506Z,3.08
2023-05-05T07:06:16.560Z,2.72
2023-05-05T07:08:44.628Z,3.22
2023-05-05T07:11:12.660Z,2.60
2023-05-05T07:13:41.226Z,2.80
2023-05-05T07:16:11.060Z,2.90
2023-05-05T07:18:39.269Z,2.63
2023-05-05T07:21:07.577Z,2.90
2023-05-05T07:23:37.373Z,3.10
2023-05-05T07:26:05.609Z,2.92
2023-05-05T07:28:33.645Z,2.95
2023-05-05T07:31:02.010Z,2.92
2023-05-05T07:33:31.454Z,3.03
2023-05-05T07:35:59.499Z,2.72
2023-05-05T07:38:28.521Z,2.90
2023-05-05T07:40:56.649Z,3.17
2023-05-05T07:43:24.709Z,2.45
2023-05-05T07:45:52.880Z,3.22
2023-05-05T07:48:21.335Z,2.97
2023-05-05T07:50:52.445Z,3.33
2023-05-05T07:53:20.549Z,3.58
2023-05-05T07:55:48.607Z,3.28
2023-05-05T07:58:16.642Z,3.22
2023-05-05T08:00:44.832Z,3.20
2023-05-05T08:03:13.095Z,3.35
2023-05-05T08:05:41.418Z,3.13
2023-05-05T08:08:10.896Z,3.20
2023-05-05T08:10:39.006Z,4.03
2023-05-05T08:13:07.066Z,4.15
2023-05-05T08:15:35.166Z,3.80
2023-05-05T08:18:03.315Z,4.03
2023-05-05T08:20:31.576Z,4.10
2023-05-05T08:22:59.777Z,4.20
2023-05-05T08:25:29.320Z,4.70
2023-05-05T08:27:57.517Z,4.13
2023-05-05T08:30:25.608Z,4.47
2023-05-05T08:32:53.784Z,4.05
2023-05-05T08:35:22.137Z,4.70
2023-05-05T08:37:51.423Z,4.55
2023-05-05T08:40:20.918Z,4.68
2023-05-05T08:42:50.704Z,4.72
2023-05-05T08:45:18.760Z,3.88
2023-05-05T08:47:46.981Z,4.22
2023-05-05T08:50:17.685Z,3.72
2023-05-05T08:52:52.821Z,4.07
2023-05-05T08:55:25.471Z,4.35
2023-05-05T08:57:57.943Z,4.60
2023-05-05T09:00:27.207Z,4.88
2023-05-05T09:02:57.815Z,4.22
2023-05-05T09:05:26.107Z,4.45
2023-05-05T09:07:54.405Z,4.30
2023-05-05T09:10:22.596Z,3.67
2023-05-05T09:12:51.494Z,4.40
2023-05-05T09:15:21.082Z,4.50
2023-05-05T09:17:49.176Z,4.95
2023-05-05T09:20:17.277Z,5.10
2023-05-05T09:22:46.653Z,4.78
2023-05-05T09:25:16.076Z,4.43
2023-05-05T09:27:46.960Z,4.57
2023-05-05T09:30:17.147Z,4.72
2023-05-05T09:32:50.650Z,4.38
2023-05-05T09:35:20.339Z,4.30
2023-05-05T09:37:48.791Z,3.38
2023-05-05T09:40:18.934Z,3.75
2023-05-05T09:42:47.347Z,3.47
2023-05-05T09:45:28.477Z,4.68
2023-05-05T09:48:00.236Z,4.25
2023-05-05T09:50:30.979Z,4.15
2023-05-05T09:53:00.676Z,5.38
2023-05-05T09:55:29.091Z,4.00
2023-05-05T09:57:57.285Z,3.72
2023-05-05T10:00:39.703Z,3.75
2023-05-05T10:03:09.190Z,3.20
2023-05-05T10:05:49.050Z,3.70
2023-05-05T10:08:18.019Z,3.47
2023-05-05T10:10:50.501Z,3.63
2023-05-05T10:13:20.640Z,4.00
2023-05-05T10:15:50.985Z,3.60
2023-05-05T10:18:23.842Z,3.28
2023-05-05T10:20:58.112Z,3.30
2023-05-05T10:23:33.115Z,3.38
2023-05-05T10:26:04.616Z,4.10
2023-05-05T10:31:23.912Z,2.90
2023-05-05T10:34:06.752Z,3.40
2023-05-05T10:36:35.251Z,3.40
2023-05-05T10:39:06.700Z,3.60
2023-05-05T10:44:04.553Z,4.60
2023-05-05T10:46:33.344Z,4.68
2023-05-05T10:49:13.175Z,4.80
2023-05-05T10:51:48.363Z,4.40
2023-05-05T10:54:24.377Z,4.50
2023-05-05T10:56:53.004Z,4.32
2023-05-05T10:59:43.555Z,4.00
2023-05-05T11:02:22.505Z,4.75
2023-05-05T11:05:14.439Z,3.33
2023-05-05T11:07:43.230Z,4.65
2023-05-05T11:10:12.718Z,4.53
2023-05-05T11:13:21.255Z,4.95
2023-05-05T11:15:50.779Z,5.10
2023-05-05T11:18:31.427Z,5.07
2023-05-05T11:21:18.181Z,5.13
2023-05-05T11:23:48.350Z,5.22
2023-05-05T11:26:17.820Z,5.65
2023-05-05T11:29:00.726Z,5.82
2023-05-05T11:31:29.638Z,5.80
2023-05-05T11:34:31.085Z,5.38
2023-05-05T11:37:03.414Z,5.95
2023-05-05T11:39:42.173Z,5.88
2023-05-05T11:42:27.932Z,5.07
2023-05-05T11:44:56.278Z,4.80
2023-05-05T11:47:32.097Z,3.72
2023-05-05T11:50:16.134Z,4.10
2023-05-05T11:52:45.574Z,4.35
2023-05-05T11:55:13.759Z,3.92
2023-05-05T11:57:41.803Z,4.72
2023-05-05T12:00:10.805Z,4.40
2023-05-05T12:02:39.218Z,3.90
2023-05-05T12:05:08.136Z,4.38
2023-05-05T12:07:36.269Z,4.50
2023-05-05T12:10:06.529Z,3.13
2023-05-05T12:12:36.767Z,2.63
2023-05-05T12:15:05.693Z,3.10
2023-05-05T12:17:42.640Z,2.65
2023-05-05T12:20:12.775Z,2.72
2023-05-05T12:22:41.540Z,2.28
2023-05-05T12:25:11.796Z,1.58
2023-05-05T12:27:39.937Z,2.00
2023-05-05T12:30:16.342Z,1.65
2023-05-05T12:32:45.112Z,1.50
2023-05-05T12:35:14.431Z,1.30
2023-05-05T12:37:43.497Z,1.50
2023-05-05T12:40:47.716Z,1.17
2023-05-05T12:43:32.700Z,1.42
2023-05-05T12:46:06.008Z,1.40
2023-05-05T12:48:35.079Z,1.20
2023-05-05T12:51:20.069Z,1.27
2023-05-05T12:53:49.844Z,1.05
2023-05-05T12:56:32.462Z,1.20
2023-05-05T12:59:00.940Z,1.20
2023-05-05T13:01:29.474Z,1.20
2023-05-05T13:04:07.925Z,0.93
2023-05-05T13:06:36.221Z,1.00
2023-05-05T13:09:04.995Z,1.05
2023-05-05T13:11:38.196Z,0.85
2023-05-05T13:14:07.467Z,1.48
2023-05-05T13:16:35.919Z,1.42
2023-05-05T13:19:04.048Z,1.27
2023-05-05T13:21:32.213Z,1.35
2023-05-05T13:24:12.489Z,1.40
2023-05-05T13:26:49.869Z,1.27
2023-05-05T13:29:18.304Z,1.30
2023-05-05T13:31:46.952Z,1.42
2023-05-05T13:34:15.180Z,1.50
2023-05-05T13:36:43.242Z,1.30
2023-05-05T13:39:11.330Z,1.27
2023-05-05T13:41:39.461Z,1.05
2023-05-05T13:44:08.901Z,0.98
2023-05-05T13:46:37.026Z,1.15
2023-05-05T13:49:06.437Z,1.20
2023-05-05T13:51:35.015Z,1.05
2023-05-05T13:54:03.271Z,1.00
2023-05-05T13:56:31.457Z,1.00
2023-05-05T13:59:00.964Z,0.70
2023-05-05T14:01:31.193Z,0.95
2023-05-05T14:03:59.450Z,0.80
2023-05-05T14:06:27.798Z,0.68
2023-05-05T14:08:55.881Z,1.10
2023-05-05T14:11:24.331Z,0.90
2023-05-05T14:13:52.785Z,0.60
2023-05-05T14:16:21.103Z,0.90
2023-05-05T14:18:50.543Z,0.75
2023-05-05T14:21:18.562Z,1.10
2023-05-05T14:23:46.625Z,0.80
2023-05-05T14:26:14.714Z,0.90
2023-05-05T14:28:43.517Z,0.98
2023-05-05T14:31:11.984Z,0.80
2023-05-05T14:33:40.161Z,0.70
2023-05-05T14:36:10.505Z,1.02
2023-05-05T14:38:38.639Z,1.02
2023-05-05T14:41:06.870Z,0.80
2023-05-05T14:43:34.938Z,0.80
2023-05-05T14:46:06.690Z,0.55
2023-05-05T14:48:35.584Z,0.70
2023-05-05T14:51:04.215Z,0.75
2023-05-05T14:53:33.633Z,0.68
2023-05-05T14:56:02.242Z,0.60
2023-05-05T14:58:31.083Z,0.80
2023-05-05T15:01:00.506Z,0.60
2023-05-05T15:03:28.855Z,0.95
2023-05-05T15:05:57.047Z,0.70
2023-05-05T15:08:25.375Z,0.70
2023-05-05T15:10:54.805Z,1.08
2023-05-05T15:13:22.954Z,3.45
2023-05-05T15:15:51.387Z,24.25
2023-05-05T15:18:20.049Z,8.80
2023-05-05T15:20:48.142Z,3.55
2023-05-05T15:23:16.237Z,2.00
2023-05-05T15:25:44.321Z,1.30
2023-05-05T15:28:13.729Z,1.20
2023-05-05T15:30:41.760Z,1.10
2023-05-05T15:33:09.836Z,0.90
2023-05-05T15:35:37.933Z,1.00
2023-05-05T15:38:06.293Z,1.30
2023-05-05T15:40:34.619Z,0.82
2023-05-05T15:43:02.656Z,1.02
2023-05-05T15:45:32.079Z,1.02
2023-05-05T15:48:00.196Z,0.90
2023-05-05T15:50:28.282Z,0.70
2023-05-05T15:52:57.010Z,1.08
2023-05-05T15:55:25.598Z,0.88
2023-05-05T15:57:53.804Z,0.95
2023-05-05T16:00:22.518Z,0.82
2023-05-05T16:02:52.136Z,1.00
2023-05-05T16:05:22.848Z,0.77
2023-05-05T16:07:52.502Z,1.15
2023-05-05T16:10:20.906Z,0.70
2023-05-05T16:12:49.043Z,0.60
2023-05-05T16:15:17.181Z,1.30
2023-05-05T16:17:45.382Z,1.20
2023-05-05T16:20:14.997Z,0.98
2023-05-05T16:22:43.116Z,0.80
2023-05-05T16:25:11.430Z,1.02
2023-05-05T16:27:39.570Z,0.88
2023-05-05T16:30:10.164Z,0.90
2023-05-05T16:32:38.308Z,1.48
2023-05-05T16:35:07.536Z,0.93
2023-05-05T16:37:37.430Z,1.00
2023-05-05T16:40:06.722Z,1.02
2023-05-05T16:42:34.851Z,0.93
2023-05-05T16:45:03.057Z,1.08
2023-05-05T16:47:31.133Z,1.80
2023-05-05T16:49:59.264Z,1.15
2023-05-05T16:52:27.345Z,1.65
2023-05-05T16:54:57.263Z,1.50
2023-05-05T16:57:25.363Z,0.90
2023-05-05T16:59:56.309Z,1.05
2023-05-05T17:02:24.530Z,0.82
2023-05-05T17:04:52.794Z,0.90
2023-05-05T17:07:21.406Z,0.80
2023-05-05T17:09:49.452Z,0.85
2023-05-05T17:12:18.904Z,0.80
2023-05-05T17:14:47.019Z,0.77
2023-05-05T17:17:15.426Z,0.80
2023-05-05T17:19:44.725Z,1.05
2023-05-05T17:22:12.796Z,0.80
2023-05-05T17:24:40.987Z,1.10
2023-05-05T17:27:09.059Z,0.95
2023-05-05T17:29:40.862Z,0.80
2023-05-05T17:32:09.231Z,1.40
2023-05-05T17:34:37.537Z,2.13
2023-05-05T17:37:05.646Z,11.65
2023-05-05T17:39:34.260Z,12.20
2023-05-05T17:42:02.376Z,12.25
2023-05-05T17:44:31.438Z,5.63
2023-05-05T17:47:02.739Z,2.97
2023-05-05T17:49:30.845Z,1.40
2023-05-05T17:51:58.877Z,1.00
2023-05-05T17:54:27.106Z,1.00
2023-05-05T17:56:55.128Z,1.20
2023-05-05T17:59:23.225Z,1.10
2023-05-05T18:01:51.259Z,1.45
2023-05-05T18:04:20.664Z,2.00
2023-05-05T18:06:48.704Z,2.58
2023-05-05T18:09:17.668Z,4.47
2023-05-05T18:11:45.837Z,2.05
2023-05-05T18:14:13.877Z,2.15
2023-05-05T18:16:43.817Z,4.95
2023-05-05T18:19:11.879Z,2.90
2023-05-05T18:21:41.284Z,1.90
2023-05-05T18:24:19.458Z,1.50
2023-05-05T18:26:50.022Z,1.42
2023-05-05T18:29:18.310Z,1.73
2023-05-05T18:31:48.337Z,2.22
2023-05-05T18:34:17.012Z,1.67
2023-05-05T18:36:47.169Z,1.73
2023-05-05T18:39:15.668Z,2.28
2023-05-05T18:41:43.728Z,2.38
2023-05-05T18:44:11.988Z,2.70
2023-05-05T18:46:40.222Z,2.03
2023-05-05T18:49:08.385Z,2.15
2023-05-05T18:51:36.528Z,1.33
2023-05-05T18:54:06.166Z,2.03
2023-05-05T18:56:34.210Z,2.13
2023-05-05T18:59:02.268Z,2.80
2023-05-05T19:01:30.775Z,2.47
2023-05-05T19:03:58.882Z,2.28
2023-05-05T19:06:27.287Z,1.58
2023-05-05T19:08:55.443Z,1.90
2023-05-05T19:11:25.223Z,1.90
2023-05-05T19:13:53.308Z,1.83
2023-05-05T19:16:21.524Z,2.22
2023-05-05T19:18:49.664Z,2.38
2023-05-05T19:21:17.743Z,2.17
2023-05-05T19:23:45.816Z,2.40
2023-05-05T19:26:15.168Z,1.55
2023-05-05T19:28:44.578Z,2.00
2023-05-05T19:31:12.614Z,2.10
2023-05-05T19:33:44.857Z,1.70
2023-05-05T19:36:13.676Z,1.67
2023-05-05T19:38:44.306Z,1.90
2023-05-05T19:41:12.710Z,1.80
2023-05-05T19:43:40.809Z,2.00
2023-05-05T19:46:10.307Z,2.13
2023-05-05T19:48:38.437Z,2.20
2023-05-05T19:51:06.696Z,2.17
2023-05-05T19:53:34.754Z,1.67
2023-05-05T19:56:02.790Z,3.17
2023-05-05T19:58:31.394Z,2.47
2023-05-05T20:00:59.447Z,2.35
2023-05-05T20:03:28.950Z,2.50
2023-05-05T20:05:57.612Z,2.40
2023-05-05T20:08:25.656Z,2.80
2023-05-05T20:10:53.704Z,3.42
2023-05-05T20:13:21.796Z,3.30
2023-05-05T20:15:49.973Z,3.35
2023-05-05T20:18:18.076Z,3.55
2023-05-05T20:20:47.581Z,3.25
2023-05-05T20:23:16.144Z,3.63
2023-05-05T20:25:44.230Z,3.55
2023-05-05T20:28:12.284Z,2.90
2023-05-05T20:30:40.532Z,3.42
2023-05-05T20:33:08.587Z,2.92
2023-05-05T20:35:36.775Z,3.42
2023-05-05T20:38:06.265Z,3.40
2023-05-05T20:40:34.355Z,2.97
2023-05-05T20:43:02.440Z,3.40
2023-05-05T20:45:31.667Z,3.72
2023-05-05T20:48:00.793Z,3.42
2023-05-05T20:50:28.906Z,4.10
2023-05-05T20:52:57.073Z,3.28
2023-05-05T20:55:27.319Z,2.95
2023-05-05T20:57:55.432Z,3.17
2023-05-05T21:00:26.438Z,3.03
2023-05-05T21:02:54.675Z,2.90
2023-05-05T21:05:23.105Z,3.75
2023-05-05T21:07:51.609Z,3.67
2023-05-05T21:10:19.658Z,3.83
2023-05-05T21:12:49.081Z,3.53
2023-05-05T21:15:17.608Z,3.95
2023-05-05T21:17:46.391Z,3.85
2023-05-05T21:20:14.809Z,3.90
2023-05-05T21:22:42.859Z,3.33
2023-05-05T21:25:12.508Z,2.90
2023-05-05T21:27:40.553Z,2.78
2023-05-05T21:30:11.429Z,2.72
2023-05-05T21:32:39.705Z,3.23
2023-05-05T21:35:09.313Z,3.53
2023-05-05T21:37:39.041Z,4.00
2023-05-05T21:40:10.581Z,3.35
2023-05-05T21:42:39.029Z,3.80
2023-05-05T21:45:09.709Z,3.28
2023-05-05T21:47:37.892Z,2.83
2023-05-05T21:50:06.774Z,2.80
2023-05-05T21:52:34.875Z,11.57
2023-05-05T21:55:03.732Z,6.28
2023-05-05T21:57:31.790Z,3.22
2023-05-05T21:59:59.822Z,2.65
2023-05-05T22:02:29.310Z,2.67
2023-05-05T22:04:57.408Z,2.33
2023-05-05T22:07:26.116Z,2.30
2023-05-05T22:09:54.155Z,2.25
2023-05-05T22:12:22.197Z,2.10
2023-05-05T22:14:50.266Z,1.88
2023-05-05T22:17:18.338Z,2.20
2023-05-05T22:19:47.757Z,2.03
2023-05-05T22:22:17.390Z,2.42
2023-05-05T22:24:45.525Z,1.90
2023-05-05T22:27:13.578Z,2.22
2023-05-05T22:29:41.753Z,1.80
2023-05-05T22:32:09.821Z,2.38
2023-05-05T22:34:37.866Z,1.80
2023-05-05T22:37:07.457Z,1.80
2023-05-05T22:39:35.612Z,2.05
2023-05-05T22:42:03.839Z,1.65
2023-05-05T22:44:31.923Z,1.58
2023-05-05T22:47:00.065Z,1.80
2023-05-05T22:49:28.758Z,2.10
2023-05-05T22:51:57.206Z,1.65
2023-05-05T22:54:26.633Z,1.67
2023-05-05T22:56:54.669Z,1.90
2023-05-05T22:59:22.756Z,1.83
2023-05-05T23:01:50.842Z,1.60
2023-05-05T23:04:19.010Z,1.63
2023-05-05T23:06:47.045Z,1.42
2023-05-05T23:09:15.077Z,1.48
2023-05-05T23:11:44.485Z,1.52
2023-05-05T23:14:12.514Z,1.40
2023-05-05T23:16:40.626Z,1.75
2023-05-05T23:19:08.691Z,1.42
2023-05-05T23:21:49.341Z,1.60
2023-05-05T23:24:20.429Z,1.10
2023-05-05T23:26:49.859Z,1.40
2023-05-05T23:29:17.887Z,1.42
2023-05-05T23:31:46.964Z,1.40
2023-05-05T23:34:15.038Z,1.70
2023-05-05T23:36:43.128Z,1.90
2023-05-05T23:39:11.440Z,1.33
2023-05-05T23:41:39.516Z,1.30
2023-05-05T23:44:08.925Z,1.50
2023-05-05T23:46:37.124Z,1.80
2023-05-05T23:49:05.258Z,1.45
2023-05-05T23:51:33.324Z,1.30
2023-05-05T23:54:01.369Z,1.80
2023-05-05T23:56:29.426Z,1.58
2023-05-05T23:58:57.476Z,1.40
